createdAt,value
2022-12-03T00:02:22.349Z,99855.25
2022-12-03T00:04:48.778Z,99851.00
2022-12-03T00:07:15.092Z,99850.47
2022-12-03T00:09:41.509Z,99858.75
2022-12-03T00:12:07.838Z,99861.53
2022-12-03T00:14:34.206Z,99852.81
2022-12-03T00:17:00.683Z,99855.63
2022-12-03T00:19:27.052Z,99863.38
2022-12-03T00:21:53.428Z,99864.34
2022-12-03T00:24:19.706Z,99855.78
2022-12-03T00:26:46.080Z,99850.59
2022-12-03T00:29:12.356Z,99848.66
2022-12-03T00:31:38.957Z,99844.25
2022-12-03T00:34:05.699Z,99845.28
2022-12-03T00:36:32.382Z,99853.03
2022-12-03T00:38:59.057Z,99841.41
2022-12-03T00:41:25.713Z,99850.19
2022-12-03T00:43:52.009Z,99849.13
2022-12-03T00:46:21.636Z,99845.38
2022-12-03T00:48:48.540Z,99839.75
2022-12-03T00:51:14.930Z,99842.16
2022-12-03T00:53:41.424Z,99843.34
2022-12-03T00:56:08.160Z,99852.16
2022-12-03T00:58:34.712Z,99850.63
2022-12-03T01:01:01.116Z,99847.16
2022-12-03T01:03:27.614Z,99859.38
2022-12-03T01:05:53.958Z,99854.34
2022-12-03T01:08:20.284Z,99851.22
2022-12-03T01:10:46.755Z,99852.16
2022-12-03T01:13:13.122Z,99853.19
2022-12-03T01:15:39.584Z,99846.22
2022-12-03T01:18:06.012Z,99854.16
2022-12-03T01:20:32.293Z,99863.50
2022-12-03T01:22:58.600Z,99852.75
2022-12-03T01:25:24.970Z,99847.63
2022-12-03T01:27:51.316Z,99862.19
2022-12-03T01:30:17.866Z,99857.09
2022-12-03T01:32:44.280Z,99854.91
2022-12-03T01:35:10.845Z,99848.63
2022-12-03T01:37:37.273Z,99850.44
2022-12-03T01:40:04.932Z,99839.44
2022-12-03T01:42:37.011Z,99853.03
2022-12-03T01:45:03.960Z,99848.75
2022-12-03T01:47:33.535Z,99855.34
2022-12-03T01:50:06.653Z,99852.25
2022-12-03T01:52:37.118Z,99860.06
2022-12-03T01:55:07.654Z,99859.22
2022-12-03T01:57:43.424Z,99846.19
2022-12-03T02:00:18.327Z,99853.31
2022-12-03T02:02:45.073Z,99848.25
2022-12-03T02:05:32.795Z,99848.66
2022-12-03T02:08:00.086Z,99848.50
2022-12-03T02:10:31.105Z,99851.94
2022-12-03T02:13:07.961Z,99854.38
2022-12-03T02:15:35.936Z,99845.25
2022-12-03T02:18:02.934Z,99854.88
2022-12-03T02:20:33.446Z,99847.88
2022-12-03T02:23:08.689Z,99848.75
2022-12-03T02:25:36.736Z,99842.63
2022-12-03T02:28:06.054Z,99851.00
2022-12-03T02:30:32.550Z,99853.00
2022-12-03T02:32:59.800Z,99845.03
2022-12-03T02:35:30.438Z,99849.19
2022-12-03T02:38:19.512Z,99845.94
2022-12-03T02:40:49.525Z,99856.41
2022-12-03T02:43:18.003Z,99853.78
2022-12-03T02:46:04.004Z,99854.59
2022-12-03T02:48:35.725Z,99852.13
2022-12-03T02:51:08.051Z,99862.53
2022-12-03T02:53:41.046Z,99859.00
2022-12-03T02:56:08.818Z,99860.03
2022-12-03T02:58:35.631Z,99860.78
2022-12-03T03:01:04.197Z,99865.09
2022-12-03T03:03:32.467Z,99859.88
2022-12-03T03:06:01.508Z,99853.81
2022-12-03T03:08:29.305Z,99858.22
2022-12-03T03:10:57.132Z,99862.38
2022-12-03T03:13:23.765Z,99854.44
2022-12-03T03:15:50.389Z,99847.81
2022-12-03T03:18:17.510Z,99861.66
2022-12-03T03:20:44.877Z,99855.34
2022-12-03T03:23:11.166Z,99841.84
2022-12-03T03:25:39.430Z,99849.16
2022-12-03T03:28:06.564Z,99841.00
2022-12-03T03:30:33.884Z,99840.22
2022-12-03T03:33:00.301Z,99830.53
2022-12-03T03:35:27.099Z,99840.91
2022-12-03T03:37:54.122Z,99823.66
2022-12-03T03:40:21.597Z,99835.16
2022-12-03T03:42:48.958Z,99838.63
2022-12-03T03:45:15.495Z,99833.53
2022-12-03T03:47:43.119Z,99831.84
2022-12-03T03:50:12.232Z,99828.00
2022-12-03T03:52:40.524Z,99817.66
2022-12-03T03:55:08.645Z,99832.84
2022-12-03T03:57:35.200Z,99820.66
2022-12-03T04:00:01.867Z,99813.28
2022-12-03T04:02:28.339Z,99819.94
2022-12-03T04:04:55.306Z,99826.28
2022-12-03T04:07:21.879Z,99821.16
2022-12-03T04:09:48.264Z,99822.16
2022-12-03T04:12:14.962Z,99820.41
2022-12-03T04:14:41.241Z,99817.69
2022-12-03T04:17:07.586Z,99821.03
2022-12-03T04:19:33.985Z,99811.47
2022-12-03T04:22:00.478Z,99811.72
2022-12-03T04:24:27.131Z,99820.28
2022-12-03T04:26:54.567Z,99812.72
2022-12-03T04:29:21.373Z,99798.03
2022-12-03T04:31:47.721Z,99810.41
2022-12-03T04:34:14.163Z,99813.28
2022-12-03T04:36:40.472Z,99801.53
2022-12-03T04:39:06.749Z,99810.06
2022-12-03T04:41:33.195Z,99804.34
2022-12-03T04:43:59.468Z,99812.50
2022-12-03T04:46:26.233Z,99804.72
2022-12-03T04:48:52.558Z,99806.31
2022-12-03T04:51:19.142Z,99803.63
2022-12-03T04:53:46.316Z,99809.44
2022-12-03T04:56:13.127Z,99812.47
2022-12-03T04:58:39.514Z,99810.25
2022-12-03T05:01:05.938Z,99813.59
2022-12-03T05:03:32.356Z,99821.50
2022-12-03T05:05:58.688Z,99818.94
2022-12-03T05:08:25.013Z,99823.16
2022-12-03T05:10:51.553Z,99814.50
2022-12-03T05:13:17.866Z,99811.69
2022-12-03T05:15:44.391Z,99802.34
2022-12-03T05:18:10.717Z,99810.88
2022-12-03T05:20:37.230Z,99785.25
2022-12-03T05:23:03.600Z,99797.13
2022-12-03T05:25:30.067Z,99805.94
2022-12-03T05:27:56.578Z,99806.66
2022-12-03T05:30:23.098Z,99803.81
2022-12-03T05:32:49.699Z,99804.13
2022-12-03T05:35:16.734Z,99811.75
2022-12-03T05:37:43.220Z,99811.75
2022-12-03T05:40:10.754Z,99811.59
2022-12-03T05:42:37.135Z,99809.97
2022-12-03T05:45:03.717Z,99806.50
2022-12-03T05:47:30.169Z,99811.84
2022-12-03T05:49:56.506Z,99812.06
2022-12-03T05:52:22.889Z,99806.50
2022-12-03T05:54:49.165Z,99803.94
2022-12-03T05:57:15.492Z,99804.03
2022-12-03T05:59:41.953Z,99810.31
2022-12-03T06:02:08.319Z,99810.34
2022-12-03T06:04:34.736Z,99812.97
2022-12-03T06:07:01.009Z,99796.22
2022-12-03T06:09:27.417Z,99800.28
2022-12-03T06:11:53.721Z,99794.53
2022-12-03T06:14:21.030Z,99798.09
2022-12-03T06:16:47.442Z,99787.78
2022-12-03T06:19:13.952Z,99799.94
2022-12-03T06:21:40.355Z,99805.09
2022-12-03T06:24:06.807Z,99802.41
2022-12-03T06:26:33.181Z,99808.72
2022-12-03T06:28:59.476Z,99802.34
2022-12-03T06:31:25.988Z,99807.28
2022-12-03T06:33:52.364Z,99802.03
2022-12-03T06:36:22.839Z,99796.31
2022-12-03T06:38:49.819Z,99802.22
2022-12-03T06:41:16.100Z,99798.97
2022-12-03T06:43:42.384Z,99811.88
2022-12-03T06:46:09.100Z,99805.28
2022-12-03T06:48:35.455Z,99802.72
2022-12-03T06:51:01.911Z,99807.63
2022-12-03T06:53:28.224Z,99814.50
2022-12-03T06:55:54.648Z,99805.28
2022-12-03T06:58:21.455Z,99817.19
2022-12-03T07:00:47.833Z,99793.72
2022-12-03T07:03:14.478Z,99802.00
2022-12-03T07:05:41.076Z,99798.03
2022-12-03T07:08:07.666Z,99801.75
2022-12-03T07:10:34.127Z,99810.03
2022-12-03T07:13:00.504Z,99802.38
2022-12-03T07:15:26.962Z,99807.53
2022-12-03T07:17:53.270Z,99812.56
2022-12-03T07:20:19.582Z,99810.19
2022-12-03T07:22:45.961Z,99819.00
2022-12-03T07:25:15.764Z,99833.75
2022-12-03T07:27:45.999Z,99809.69
2022-12-03T07:30:15.175Z,99809.25
2022-12-03T07:32:41.897Z,99805.78
2022-12-03T07:35:08.738Z,99805.72
2022-12-03T07:37:35.239Z,99811.84
2022-12-03T07:40:02.089Z,99799.84
2022-12-03T07:42:28.713Z,99794.78
2022-12-03T07:44:55.230Z,99787.81
2022-12-03T07:47:21.723Z,99796.81
2022-12-03T07:49:48.140Z,99793.16
2022-12-03T07:52:14.849Z,99805.53
2022-12-03T07:54:41.264Z,99800.31
2022-12-03T07:57:07.816Z,99798.59
2022-12-03T07:59:34.144Z,99796.97
2022-12-03T08:02:00.585Z,99793.78
2022-12-03T08:04:26.992Z,99803.16
2022-12-03T08:06:53.454Z,99795.72
2022-12-03T08:09:19.877Z,99801.06
2022-12-03T08:11:48.768Z,99795.03
2022-12-03T08:14:18.391Z,99801.53
2022-12-03T08:16:47.260Z,99805.56
2022-12-03T08:19:16.053Z,99803.38
2022-12-03T08:21:43.449Z,99793.94
2022-12-03T08:24:21.313Z,99798.03
2022-12-03T08:26:48.780Z,99789.34
2022-12-03T08:29:17.614Z,99787.34
2022-12-03T08:31:49.489Z,99793.41
2022-12-03T08:34:28.057Z,99790.09
2022-12-03T08:37:08.968Z,99788.44
2022-12-03T08:39:44.035Z,99791.75
2022-12-03T08:42:18.662Z,99794.47
2022-12-03T08:44:44.985Z,99780.81
2022-12-03T08:47:19.957Z,99792.63
2022-12-03T08:50:13.869Z,99791.72
2022-12-03T08:52:40.220Z,99785.91
2022-12-03T08:55:36.349Z,99794.34
2022-12-03T08:58:25.845Z,99792.88
2022-12-03T09:00:57.246Z,99793.06
2022-12-03T09:03:23.687Z,99788.66
2022-12-03T09:05:50.127Z,99792.16
2022-12-03T09:08:16.788Z,99790.34
2022-12-03T09:10:43.382Z,99783.19
2022-12-03T09:13:12.003Z,99787.53
2022-12-03T09:15:38.427Z,99787.91
2022-12-03T09:18:04.788Z,99790.06
2022-12-03T09:20:31.119Z,99781.81
2022-12-03T09:22:57.811Z,99771.81
2022-12-03T09:25:24.277Z,99771.63
2022-12-03T09:27:50.619Z,99777.09
2022-12-03T09:32:25.917Z,99775.72
2022-12-03T09:34:53.086Z,99784.75
2022-12-03T09:37:19.613Z,99776.56
2022-12-03T09:39:46.028Z,99794.81
2022-12-03T09:42:21.386Z,99784.91
2022-12-03T09:44:48.063Z,99780.84
2022-12-03T09:47:14.372Z,99775.66
2022-12-03T09:49:41.316Z,99775.34
2022-12-03T09:52:08.671Z,99762.38
2022-12-03T09:54:35.312Z,99778.88
2022-12-03T09:57:03.726Z,99778.19
2022-12-03T09:59:32.341Z,99774.97
2022-12-03T10:01:59.692Z,99777.34
2022-12-03T10:04:27.731Z,99781.53
2022-12-03T10:06:54.279Z,99761.88
2022-12-03T10:09:26.130Z,99775.47
2022-12-03T10:11:53.133Z,99765.00
2022-12-03T10:14:20.069Z,99773.25
2022-12-03T10:16:46.798Z,99763.00
2022-12-03T10:19:21.842Z,99756.13
2022-12-03T10:21:48.428Z,99762.72
2022-12-03T10:24:36.831Z,99757.69
2022-12-03T10:27:20.087Z,99760.13
2022-12-03T10:29:58.157Z,99761.19
2022-12-03T10:32:27.131Z,99746.19
2022-12-03T10:35:10.754Z,99745.97
2022-12-03T10:37:37.110Z,99749.00
2022-12-03T10:40:11.747Z,99746.50
2022-12-03T10:42:40.622Z,99744.00
2022-12-03T10:45:11.614Z,99736.97
2022-12-03T10:47:38.348Z,99736.25
2022-12-03T10:50:14.404Z,99711.81
2022-12-03T10:52:41.016Z,99732.72
2022-12-03T10:55:12.229Z,99730.47
2022-12-03T10:57:45.075Z,99723.91
2022-12-03T11:00:17.100Z,99723.09
2022-12-03T11:02:43.692Z,99718.03
2022-12-03T11:05:23.347Z,99719.44
2022-12-03T11:07:50.004Z,99717.06
2022-12-03T11:10:18.698Z,99719.50
2022-12-03T11:13:22.575Z,99713.50
2022-12-03T11:15:49.053Z,99717.81
2022-12-03T11:18:37.334Z,99716.91
2022-12-03T11:21:03.790Z,99714.50
2022-12-03T11:24:15.611Z,99716.94
2022-12-03T11:26:41.981Z,99721.03
2022-12-03T11:29:17.318Z,99714.09
2022-12-03T11:31:45.045Z,99716.13
2022-12-03T11:34:20.415Z,99706.75
2022-12-03T11:37:11.576Z,99704.63
2022-12-03T11:39:50.358Z,99709.78
2022-12-03T11:42:22.871Z,99705.16
2022-12-03T11:45:09.232Z,99710.56
2022-12-03T11:47:39.630Z,99700.75
2022-12-03T11:50:40.396Z,99714.59
2022-12-03T11:53:18.967Z,99706.34
2022-12-03T11:55:49.538Z,99703.59
2022-12-03T11:58:30.117Z,99698.72
2022-12-03T12:00:59.094Z,99698.53
2022-12-03T12:03:33.087Z,99693.22
2022-12-03T12:06:11.385Z,99689.16
2022-12-03T12:09:02.673Z,99682.13
2022-12-03T12:11:34.424Z,99671.16
2022-12-03T12:14:11.608Z,99673.41
2022-12-03T12:16:52.600Z,99667.53
2022-12-03T12:19:41.923Z,99664.91
2022-12-03T12:22:23.480Z,99658.94
2022-12-03T12:24:52.527Z,99660.59
2022-12-03T12:27:29.820Z,99656.50
2022-12-03T12:29:58.917Z,99655.66
2022-12-03T12:32:33.692Z,99653.88
2022-12-03T12:35:21.737Z,99655.59
2022-12-03T12:37:58.554Z,99642.50
2022-12-03T12:40:29.383Z,99640.66
2022-12-03T12:42:59.025Z,99631.84
2022-12-03T12:45:31.004Z,99637.75
2022-12-03T12:48:02.327Z,99627.72
2022-12-03T12:50:30.987Z,99628.84
2022-12-03T12:53:06.402Z,99629.75
2022-12-03T12:55:32.688Z,99631.84
2022-12-03T12:58:13.483Z,99623.94
2022-12-03T13:00:40.096Z,99629.31
2022-12-03T13:03:07.410Z,99628.56
2022-12-03T13:05:39.684Z,99631.16
2022-12-03T13:08:26.358Z,99627.69
2022-12-03T13:10:58.623Z,99610.44
2022-12-03T13:13:29.763Z,99607.59
2022-12-03T13:15:56.096Z,99605.38
2022-12-03T13:18:55.801Z,99606.38
2022-12-03T13:21:44.750Z,99611.75
2022-12-03T13:24:37.966Z,99600.81
2022-12-03T13:27:19.366Z,99606.53
2022-12-03T13:30:13.556Z,99608.28
2022-12-03T13:32:42.292Z,99608.25
2022-12-03T13:35:28.194Z,99622.16
2022-12-03T13:37:57.066Z,99620.75
2022-12-03T13:40:28.889Z,99616.31
2022-12-03T13:42:55.276Z,99625.41
2022-12-03T13:45:21.541Z,99624.81
2022-12-03T13:47:56.060Z,99620.81
2022-12-03T13:50:25.481Z,99621.78
2022-12-03T13:52:52.855Z,99619.53
2022-12-03T13:55:28.209Z,99609.78
2022-12-03T13:57:54.775Z,99617.72
2022-12-03T14:00:21.706Z,99617.25
2022-12-03T14:02:48.512Z,99609.56
2022-12-03T14:05:15.144Z,99611.22
2022-12-03T14:07:42.299Z,99616.53
2022-12-03T14:10:11.257Z,99622.34
2022-12-03T14:12:37.547Z,99618.38
2022-12-03T14:15:06.311Z,99623.81
2022-12-03T14:17:32.801Z,99613.66
2022-12-03T14:19:59.569Z,99616.44
2022-12-03T14:22:25.931Z,99619.31
2022-12-03T14:24:53.174Z,99614.69
2022-12-03T14:27:20.835Z,99626.50
2022-12-03T14:29:47.181Z,99627.72
2022-12-03T14:32:13.762Z,99623.72
2022-12-03T14:34:40.149Z,99618.00
2022-12-03T14:37:06.507Z,99626.81
2022-12-03T14:39:32.841Z,99622.09
2022-12-03T14:41:59.148Z,99628.13
2022-12-03T14:44:25.494Z,99625.53
2022-12-03T14:46:56.781Z,99623.78
2022-12-03T14:49:23.733Z,99625.75
2022-12-03T14:51:50.019Z,99633.53
2022-12-03T14:54:16.521Z,99633.13
2022-12-03T14:56:42.861Z,99634.31
2022-12-03T14:59:09.184Z,99630.78
2022-12-03T15:01:35.733Z,99638.72
2022-12-03T15:04:02.350Z,99633.50
2022-12-03T15:06:28.842Z,99635.19
2022-12-03T15:08:55.168Z,99622.19
2022-12-03T15:11:21.712Z,99618.88
2022-12-03T15:13:48.068Z,99604.66
2022-12-03T15:16:14.598Z,99619.50
2022-12-03T15:18:40.942Z,99612.69
2022-12-03T15:21:07.450Z,99616.38
2022-12-03T15:23:33.805Z,99613.50
2022-12-03T15:26:00.169Z,99614.41
2022-12-03T15:28:26.570Z,99619.69
2022-12-03T15:30:52.968Z,99610.19
2022-12-03T15:33:19.972Z,99617.00
2022-12-03T15:35:46.320Z,99612.78
2022-12-03T15:38:12.918Z,99613.31
2022-12-03T15:40:39.468Z,99622.06
2022-12-03T15:43:07.409Z,99610.84
2022-12-03T15:45:34.038Z,99614.25
2022-12-03T15:48:01.050Z,99615.75
2022-12-03T15:50:27.467Z,99613.31
2022-12-03T15:52:54.058Z,99610.06
2022-12-03T15:55:20.416Z,99599.53
2022-12-03T15:57:46.971Z,99599.16
2022-12-03T16:00:14.018Z,99606.38
2022-12-03T16:02:41.232Z,99606.50
2022-12-03T16:05:10.149Z,99605.66
2022-12-03T16:07:36.687Z,99606.66
2022-12-03T16:10:04.994Z,99604.03
2022-12-03T16:12:31.328Z,99606.78
2022-12-03T16:14:57.712Z,99606.75
2022-12-03T16:17:24.257Z,99605.63
2022-12-03T16:19:50.625Z,99601.41
2022-12-03T16:22:17.142Z,99596.16
2022-12-03T16:24:43.435Z,99596.25
2022-12-03T16:27:09.896Z,99600.91
2022-12-03T16:29:36.849Z,99600.91
2022-12-03T16:32:03.279Z,99603.38
2022-12-03T16:34:29.766Z,99614.66
2022-12-03T16:36:56.051Z,99587.56
2022-12-03T16:39:22.448Z,99610.13
2022-12-03T16:41:48.837Z,99611.16
2022-12-03T16:44:15.294Z,99608.13
2022-12-03T16:46:41.743Z,99613.44
2022-12-03T16:49:08.144Z,99610.13
2022-12-03T16:51:34.451Z,99624.81
2022-12-03T16:54:00.734Z,99622.31
2022-12-03T16:56:27.082Z,99624.97
2022-12-03T16:58:53.371Z,99614.97
2022-12-03T17:01:19.689Z,99608.19
2022-12-03T17:03:46.078Z,99609.25
2022-12-03T17:06:12.393Z,99615.19
2022-12-03T17:08:39.682Z,99610.03
2022-12-03T17:11:06.769Z,99614.19
2022-12-03T17:13:33.319Z,99607.59
2022-12-03T17:16:00.058Z,99610.31
2022-12-03T17:18:26.481Z,99611.03
2022-12-03T17:20:52.838Z,99608.69
2022-12-03T17:23:19.183Z,99614.47
2022-12-03T17:25:45.565Z,99603.94
2022-12-03T17:28:11.901Z,99611.28
2022-12-03T17:30:38.329Z,99613.25
2022-12-03T17:33:04.649Z,99611.84
2022-12-03T17:35:31.031Z,99597.22
2022-12-03T17:37:57.416Z,99593.66
2022-12-03T17:40:23.753Z,99605.09
2022-12-03T17:42:50.210Z,99592.06
2022-12-03T17:45:16.581Z,99590.06
2022-12-03T17:47:42.977Z,99595.50
2022-12-03T17:50:09.798Z,99591.41
2022-12-03T17:52:36.140Z,99591.91
2022-12-03T17:55:11.245Z,99593.63
2022-12-03T17:57:40.799Z,99584.25
2022-12-03T18:00:08.012Z,99587.69
2022-12-03T18:02:34.396Z,99584.25
2022-12-03T18:05:00.704Z,99585.88
2022-12-03T18:07:27.111Z,99585.22
2022-12-03T18:09:53.697Z,99587.13
2022-12-03T18:12:20.207Z,99588.84
2022-12-03T18:14:46.540Z,99580.06
2022-12-03T18:17:12.852Z,99583.56
2022-12-03T18:19:39.254Z,99591.16
2022-12-03T18:22:05.650Z,99593.47
2022-12-03T18:24:32.121Z,99594.31
2022-12-03T18:26:58.542Z,99588.09
2022-12-03T18:29:24.927Z,99584.09
2022-12-03T18:31:51.309Z,99576.19
2022-12-03T18:34:17.855Z,99570.38
2022-12-03T18:36:44.236Z,99568.56
2022-12-03T18:39:20.149Z,99564.38
2022-12-03T18:41:46.774Z,99560.97
2022-12-03T18:44:13.283Z,99563.75
2022-12-03T18:46:55.462Z,99557.94
2022-12-03T18:49:22.190Z,99554.34
2022-12-03T18:51:49.008Z,99559.16
2022-12-03T18:54:16.831Z,99556.00
2022-12-03T18:56:43.165Z,99550.69
2022-12-03T18:59:09.693Z,99567.19
2022-12-03T19:01:36.410Z,99560.44
2022-12-03T19:04:03.225Z,99562.28
2022-12-03T19:06:29.608Z,99561.34
2022-12-03T19:08:56.036Z,99545.91
2022-12-03T19:11:22.670Z,99552.94
2022-12-03T19:13:49.038Z,99558.88
2022-12-03T19:16:15.484Z,99566.53
2022-12-03T19:18:41.828Z,99569.84
2022-12-03T19:21:10.967Z,99561.13
2022-12-03T19:23:39.332Z,99556.88
2022-12-03T19:26:07.864Z,99558.56
2022-12-03T19:28:34.677Z,99563.75
2022-12-03T19:31:05.775Z,99553.31
2022-12-03T19:33:33.370Z,99560.84
2022-12-03T19:36:00.866Z,99556.75
2022-12-03T19:38:29.182Z,99560.16
2022-12-03T19:41:06.726Z,99553.56
2022-12-03T19:43:34.936Z,99551.41
2022-12-03T19:46:07.024Z,99559.44
2022-12-03T19:48:34.486Z,99557.75
2022-12-03T19:51:19.728Z,99552.31
2022-12-03T19:53:47.967Z,99548.78
2022-12-03T19:56:17.441Z,99547.31
2022-12-03T19:58:46.143Z,99541.41
2022-12-03T20:01:19.891Z,99535.38
2022-12-03T20:03:49.098Z,99534.28
2022-12-03T20:06:17.731Z,99534.34
2022-12-03T20:08:45.208Z,99525.84
2022-12-03T20:11:15.517Z,99538.78
2022-12-03T20:13:43.829Z,99532.63
2022-12-03T20:16:12.513Z,99519.03
2022-12-03T20:18:39.808Z,99533.50
2022-12-03T20:21:08.067Z,99536.97
2022-12-03T20:23:36.137Z,99539.56
2022-12-03T20:26:06.269Z,99533.25
2022-12-03T20:28:32.577Z,99532.41
2022-12-03T20:31:10.217Z,99536.81
2022-12-03T20:33:43.494Z,99531.47
2022-12-03T20:36:11.517Z,99532.31
2022-12-03T20:38:38.245Z,99528.97
2022-12-03T20:41:10.025Z,99535.53
2022-12-03T20:43:36.988Z,99532.09
2022-12-03T20:46:17.384Z,99531.44
2022-12-03T20:48:44.829Z,99533.28
2022-12-03T20:51:14.446Z,99538.44
2022-12-03T20:53:41.985Z,99539.34
2022-12-03T20:56:09.459Z,99518.84
2022-12-03T20:58:36.097Z,99513.16
2022-12-03T21:01:20.395Z,99528.56
2022-12-03T21:03:47.329Z,99534.44
2022-12-03T21:06:15.732Z,99534.69
2022-12-03T21:08:43.266Z,99541.53
2022-12-03T21:11:20.987Z,99533.78
2022-12-03T21:13:47.853Z,99540.88
2022-12-03T21:16:34.165Z,99531.56
2022-12-03T21:19:07.098Z,99535.41
2022-12-03T21:21:33.524Z,99526.91
2022-12-03T21:23:59.846Z,99524.38
2022-12-03T21:26:26.285Z,99527.91
2022-12-03T21:28:53.373Z,99517.06
2022-12-03T21:31:22.633Z,99525.94
2022-12-03T21:33:49.334Z,99521.50
2022-12-03T21:36:16.554Z,99510.41
2022-12-03T21:38:44.478Z,99523.75
2022-12-03T21:41:11.957Z,99521.13
2022-12-03T21:43:38.485Z,99520.94
2022-12-03T21:47:08.327Z,99514.25
2022-12-03T21:48:53.504Z,99520.78
2022-12-03T21:51:20.144Z,99508.44
2022-12-03T21:53:46.892Z,99513.47
2022-12-03T21:56:17.131Z,99516.25
2022-12-03T21:58:44.433Z,99508.69
2022-12-03T22:01:19.510Z,99509.13
2022-12-03T22:03:46.273Z,99508.06
2022-12-03T22:06:13.671Z,99506.09
2022-12-03T22:08:41.046Z,99506.13
2022-12-03T22:11:10.298Z,99498.63
2022-12-03T22:13:40.012Z,99502.75
2022-12-03T22:16:09.168Z,99508.66
2022-12-03T22:18:36.239Z,99498.28
2022-12-03T22:21:07.829Z,99499.97
2022-12-03T22:23:35.213Z,99498.34
2022-12-03T22:26:05.657Z,99490.75
2022-12-03T22:28:32.973Z,99483.16
2022-12-03T22:30:59.868Z,99479.66
2022-12-03T22:33:26.343Z,99488.38
2022-12-03T22:36:05.201Z,99476.84
2022-12-03T22:38:32.118Z,99488.41
2022-12-03T22:40:59.170Z,99490.72
2022-12-03T22:43:26.226Z,99492.00
2022-12-03T22:45:56.085Z,99479.13
2022-12-03T22:48:23.536Z,99474.88
2022-12-03T22:50:51.850Z,99485.84
2022-12-03T22:53:19.044Z,99473.09
2022-12-03T22:55:54.769Z,99469.44
2022-12-03T22:58:21.600Z,99458.63
2022-12-03T23:00:47.933Z,99456.97
2022-12-03T23:03:14.439Z,99456.19
2022-12-03T23:05:40.832Z,99462.25
2022-12-03T23:08:08.848Z,99462.19
2022-12-03T23:10:37.710Z,99458.44
2022-12-03T23:13:05.859Z,99472.59
2022-12-03T23:15:32.471Z,99457.91
2022-12-03T23:17:59.175Z,99435.00
2022-12-03T23:20:25.715Z,99451.44
2022-12-03T23:22:52.658Z,99453.84
2022-12-03T23:25:20.114Z,99455.44
2022-12-03T23:27:47.020Z,99438.56
2022-12-03T23:30:15.055Z,99440.19
2022-12-03T23:32:42.233Z,99444.25
2022-12-03T23:35:09.174Z,99449.44
2022-12-03T23:37:35.497Z,99441.88
2022-12-03T23:40:02.242Z,99449.19
2022-12-03T23:42:28.644Z,99440.78
2022-12-03T23:44:55.068Z,99449.91
2022-12-03T23:47:21.363Z,99445.72
2022-12-03T23:49:47.741Z,99442.53
2022-12-03T23:52:14.322Z,99439.28
2022-12-03T23:54:40.663Z,99426.09
2022-12-03T23:57:07.227Z,99432.63
2022-12-03T23:59:33.687Z,99431.28
